Time;durP1;ratioP1;P1;durP2;ratioP2;P2;SDS_P1;SDS_P2;PMS_P1;PMS_P2;Temp;Humidity;BMP_temperature;BMP_pressure;BME280_temperature;BME280_humidity;BME280_pressure;Samples;Min_cycle;Max_cycle;Signal;HPM_P1;HPM_P2
2021/03/10 00:00:35;;;;;;;3.15;1.20;;;0.20;99.90;;;;;;4997232;28;20108;-66
2021/03/10 00:03:02;;;;;;;3.13;1.20;;;0.20;99.90;;;;;;5000331;28;20053;-66
2021/03/10 00:05:29;;;;;;;5.68;1.23;;;0.10;99.90;;;;;;5000925;28;20133;-65
2021/03/10 00:07:55;;;;;;;3.78;1.85;;;0.20;99.90;;;;;;5000250;28;20068;-65
2021/03/10 00:10:22;;;;;;;2.33;0.95;;;0.20;99.90;;;;;;4997673;28;20468;-66
2021/03/10 00:12:48;;;;;;;3.78;1.35;;;0.20;99.90;;;;;;5001745;28;20049;-66
2021/03/10 00:15:15;;;;;;;1.75;0.63;;;0.20;99.90;;;;;;5001281;28;20493;-66
2021/03/10 00:17:43;;;;;;;3.60;0.85;;;0.20;99.90;;;;;;4999503;28;20100;-66
2021/03/10 00:20:12;;;;;;;3.40;1.10;;;0.20;99.90;;;;;;5001085;28;20089;-66
2021/03/10 00:22:39;;;;;;;1.67;1.08;;;0.20;99.90;;;;;;5003040;28;20041;-66
2021/03/10 00:25:07;;;;;;;2.20;1.17;;;0.20;99.90;;;;;;5000489;28;20169;-65
2021/03/10 00:27:33;;;;;;;3.85;1.05;;;0.20;99.90;;;;;;5000724;28;20049;-64
2021/03/10 00:30:02;;;;;;;4.32;1.52;;;0.20;99.90;;;;;;4998493;28;20054;-66
2021/03/10 00:32:29;;;;;;;3.17;1.45;;;0.20;99.90;;;;;;4999284;28;20053;-65
2021/03/10 00:34:56;;;;;;;3.13;1.50;;;0.20;99.90;;;;;;4997741;28;20073;-65
2021/03/10 00:37:24;;;;;;;5.07;1.45;;;0.20;99.90;;;;;;4998172;28;20457;-66
2021/03/10 00:39:51;;;;;;;2.75;1.45;;;0.10;99.90;;;;;;4998829;28;20069;-65
2021/03/10 00:42:18;;;;;;;1.92;1.20;;;0.10;99.90;;;;;;5001703;28;20471;-65
2021/03/10 00:44:45;;;;;;;6.85;1.45;;;0.10;99.90;;;;;;5001452;28;20053;-65
2021/03/10 00:47:12;;;;;;;1.95;1.42;;;0.10;99.90;;;;;;4996135;28;20049;-65
2021/03/10 00:49:40;;;;;;;6.53;1.50;;;0.10;99.90;;;;;;4998446;28;20061;-65
2021/03/10 00:52:07;;;;;;;3.85;1.55;;;0.10;99.90;;;;;;5001217;28;20104;-64
2021/03/10 00:54:34;;;;;;;3.78;2.75;;;0.10;99.90;;;;;;5001105;28;20113;-64
2021/03/10 00:57:01;;;;;;;2.50;1.65;;;0.00;99.90;;;;;;4998862;28;20049;-66
2021/03/10 00:59:27;;;;;;;3.50;1.77;;;0.00;99.90;;;;;;5000383;28;20045;-65
2021/03/10 01:01:54;;;;;;;2.95;1.60;;;0.00;99.90;;;;;;4996521;28;20138;-65
2021/03/10 01:04:20;;;;;;;4.57;1.70;;;0.00;99.90;;;;;;5000666;28;20096;-66
2021/03/10 01:06:47;;;;;;;4.07;1.77;;;0.00;99.90;;;;;;5000081;28;20096;-66
2021/03/10 01:09:14;;;;;;;4.20;1.65;;;-0.10;99.90;;;;;;4998814;28;20066;-65
2021/03/10 01:11:40;;;;;;;2.88;1.33;;;-0.10;99.90;;;;;;4998960;28;20874;-65
2021/03/10 01:14:07;;;;;;;4.85;1.95;;;-0.10;99.90;;;;;;4998978;28;20100;-65
2021/03/10 01:16:34;;;;;;;3.13;1.67;;;-0.20;99.90;;;;;;4997623;28;20065;-65
2021/03/10 01:19:02;;;;;;;2.88;1.92;;;-0.10;99.90;;;;;;4999727;28;20045;-66
2021/03/10 01:21:28;;;;;;;3.03;1.75;;;-0.20;99.90;;;;;;4999515;28;20078;-65
2021/03/10 01:23:54;;;;;;;6.13;2.45;;;-0.20;99.90;;;;;;4998269;28;20073;-65
2021/03/10 01:26:21;;;;;;;2.88;2.15;;;-0.20;99.90;;;;;;5005361;28;20149;-64
2021/03/10 01:28:48;;;;;;;6.22;2.00;;;-0.30;99.90;;;;;;4998256;28;20054;-65
2021/03/10 01:31:15;;;;;;;2.72;1.92;;;-0.30;99.90;;;;;;5000724;28;20707;-66
2021/03/10 01:33:42;;;;;;;3.10;2.08;;;-0.30;99.90;;;;;;4997437;28;20069;-65
2021/03/10 01:36:11;;;;;;;10.73;3.65;;;-0.30;99.90;;;;;;5001574;28;20112;-65
2021/03/10 01:38:38;;;;;;;5.65;2.42;;;-0.40;99.90;;;;;;5000473;28;20046;-65
2021/03/10 01:41:05;;;;;;;3.67;2.47;;;-0.40;99.90;;;;;;4999502;28;20041;-65
2021/03/10 01:43:32;;;;;;;4.13;3.55;;;-0.40;99.90;;;;;;5000475;28;20068;-64
2021/03/10 01:45:59;;;;;;;5.03;2.80;;;-0.40;99.90;;;;;;4998733;28;20508;-66
2021/03/10 01:48:25;;;;;;;5.10;2.58;;;-0.40;99.90;;;;;;5001353;28;20108;-65
2021/03/10 01:50:52;;;;;;;7.72;2.92;;;-0.50;99.90;;;;;;4998875;28;20057;-66
2021/03/10 01:53:18;;;;;;;6.00;3.88;;;-0.50;99.90;;;;;;5000161;28;20100;-65
2021/03/10 01:55:47;;;;;;;5.95;3.28;;;-0.50;99.90;;;;;;4998634;28;20053;-64
2021/03/10 01:58:14;;;;;;;6.28;4.80;;;-0.60;99.90;;;;;;4997917;28;20057;-65
2021/03/10 02:00:40;;;;;;;7.22;3.92;;;-0.60;99.90;;;;;;4998535;28;20055;-64
2021/03/10 02:03:07;;;;;;;7.88;5.07;;;-0.70;99.90;;;;;;4999308;28;20080;-65
2021/03/10 02:05:34;;;;;;;6.05;3.97;;;-0.70;99.90;;;;;;4997999;28;20052;-65
2021/03/10 02:08:28;;;;;;;7.32;4.88;;;-0.80;99.90;;;;;;4998092;28;20054;-65
2021/03/10 02:11:10;;;;;;;5.97;4.30;;;-0.80;99.90;;;;;;4999110;28;20054;-65
2021/03/10 02:14:00;;;;;;;8.27;4.28;;;-0.80;99.90;;;;;;4999081;28;20046;-65
2021/03/10 02:16:45;;;;;;;7.20;4.50;;;-0.90;99.90;;;;;;4997364;28;20065;-64
2021/03/10 02:19:20;;;;;;;7.82;4.43;;;-0.90;99.90;;;;;;4998557;28;20056;-64
2021/03/10 02:22:04;;;;;;;12.50;7.00;;;-1.00;99.90;;;;;;4995313;28;20081;-65
2021/03/10 02:24:57;;;;;;;5.75;4.50;;;-1.00;99.90;;;;;;5000706;28;20801;-65
2021/03/10 02:27:38;;;;;;;6.38;4.22;;;-1.10;99.90;;;;;;4999029;28;20048;-64
2021/03/10 02:30:27;;;;;;;11.60;4.20;;;-1.10;99.90;;;;;;4998605;28;20468;-64
2021/03/10 02:32:56;;;;;;;8.85;4.78;;;-1.10;99.90;;;;;;5003074;28;20053;-64
2021/03/10 02:35:26;;;;;;;7.13;5.10;;;-1.10;99.90;;;;;;4997961;28;20061;-66
2021/03/10 02:38:06;;;;;;;6.90;5.50;;;-1.20;99.90;;;;;;5000700;28;20058;-64
2021/03/10 02:40:35;;;;;;;7.80;5.05;;;-1.10;99.90;;;;;;5001781;28;20334;-64
2021/03/10 02:43:02;;;;;;;7.30;4.72;;;-1.10;99.90;;;;;;5001682;28;20099;-65
2021/03/10 02:45:29;;;;;;;6.88;4.07;;;-1.10;99.90;;;;;;5001370;28;20861;-65
2021/03/10 02:47:57;;;;;;;8.07;4.93;;;-1.10;99.90;;;;;;4999217;28;20049;-65
2021/03/10 02:50:24;;;;;;;5.63;4.13;;;-1.10;99.90;;;;;;5002029;28;20045;-64
2021/03/10 02:52:52;;;;;;;10.27;5.10;;;-1.00;99.90;;;;;;4999211;28;20050;-65
2021/03/10 02:55:19;;;;;;;7.60;4.82;;;-1.00;99.90;;;;;;5003330;28;20053;-64
2021/03/10 02:57:45;;;;;;;5.07;4.15;;;-1.10;99.90;;;;;;5001765;28;20752;-62
2021/03/10 03:00:17;;;;;;;8.50;3.47;;;-1.10;99.90;;;;;;5001677;28;20429;-62
2021/03/10 03:02:43;;;;;;;6.43;3.35;;;-1.10;99.90;;;;;;5001501;28;20103;-62
2021/03/10 03:05:10;;;;;;;6.20;3.40;;;-1.10;99.90;;;;;;5002270;28;20596;-62
2021/03/10 03:07:38;;;;;;;5.93;4.28;;;-1.10;99.90;;;;;;5000676;28;20045;-63
2021/03/10 03:10:08;;;;;;;6.93;4.07;;;-1.10;99.90;;;;;;5003002;28;20046;-63
2021/03/10 03:12:35;;;;;;;10.13;4.05;;;-1.10;99.90;;;;;;5003498;28;20065;-62
2021/03/10 03:15:03;;;;;;;5.78;4.45;;;-1.10;99.90;;;;;;5000094;28;20117;-62
2021/03/10 03:17:33;;;;;;;9.20;3.88;;;-1.10;99.90;;;;;;5002763;28;20076;-63
2021/03/10 03:20:03;;;;;;;5.03;3.90;;;-1.20;99.90;;;;;;5000150;28;20052;-62
2021/03/10 03:22:30;;;;;;;8.43;3.30;;;-1.20;99.90;;;;;;4997511;28;20135;-62
2021/03/10 03:24:57;;;;;;;5.32;3.67;;;-1.20;99.90;;;;;;5002915;28;20407;-62
2021/03/10 03:27:27;;;;;;;6.05;3.83;;;-1.20;99.90;;;;;;4999348;28;20148;-63
2021/03/10 03:29:55;;;;;;;;;;;-1.30;99.90;;;;;;5000924;28;20116;-62
2021/03/10 03:32:31;;;;;;;5.00;3.72;;;-1.40;99.90;;;;;;5001449;28;19929;-63
2021/03/10 03:34:58;;;;;;;6.70;4.18;;;-1.40;99.90;;;;;;5000952;28;20084;-62
2021/03/10 03:37:40;;;;;;;8.27;4.22;;;-1.40;99.90;;;;;;5000064;28;20077;-62
2021/03/10 03:40:10;;;;;;;5.68;3.67;;;-1.50;99.90;;;;;;4999344;28;20049;-62
2021/03/10 03:42:37;;;;;;;8.50;4.25;;;-1.50;99.90;;;;;;4997372;28;20146;-63
2021/03/10 03:45:05;;;;;;;6.28;4.15;;;-1.60;99.90;;;;;;5002847;28;20046;-62
2021/03/10 03:47:32;;;;;;;8.40;3.97;;;-1.60;99.90;;;;;;4999548;28;20461;-62
2021/03/10 03:49:59;;;;;;;5.10;4.15;;;-1.60;99.90;;;;;;5000639;28;20045;-62
2021/03/10 03:52:25;;;;;;;5.90;4.53;;;-1.70;99.90;;;;;;5002488;28;20092;-63
2021/03/10 03:54:52;;;;;;;8.98;4.88;;;-1.70;99.90;;;;;;4999764;28;20082;-63
2021/03/10 03:57:18;;;;;;;10.05;4.80;;;-1.80;99.90;;;;;;4999828;28;20057;-62
2021/03/10 03:59:45;;;;;;;13.38;4.10;;;-1.80;99.90;;;;;;5000895;28;20104;-62
2021/03/10 04:02:12;;;;;;;7.10;4.55;;;-1.80;99.90;;;;;;5000989;28;20044;-61
2021/03/10 04:04:39;;;;;;;5.85;4.43;;;-1.80;99.90;;;;;;4999460;28;20054;-61
2021/03/10 04:07:05;;;;;;;6.90;4.68;;;-1.90;99.90;;;;;;5002040;28;20140;-62
2021/03/10 04:09:31;;;;;;;8.02;4.32;;;-1.80;99.90;;;;;;4999743;28;20053;-62
2021/03/10 04:11:58;;;;;;;6.53;4.57;;;-1.80;99.90;;;;;;4999603;28;20056;-61
2021/03/10 04:14:24;;;;;;;5.05;4.57;;;-1.80;99.90;;;;;;5001459;28;20085;-62
2021/03/10 04:16:50;;;;;;;6.88;3.95;;;-1.80;99.90;;;;;;5001137;28;20876;-62
2021/03/10 04:19:17;;;;;;;7.75;5.13;;;-1.80;99.90;;;;;;5004910;28;20111;-62
2021/03/10 04:21:44;;;;;;;7.97;4.50;;;-1.80;99.90;;;;;;4999180;28;20152;-62
2021/03/10 04:24:10;;;;;;;6.75;4.88;;;-1.80;99.90;;;;;;5000999;28;20096;-62
2021/03/10 04:26:37;;;;;;;6.60;4.78;;;-1.80;99.90;;;;;;5001595;28;20064;-62
2021/03/10 04:29:03;;;;;;;10.90;5.53;;;-1.80;99.90;;;;;;5002490;28;20073;-62
2021/03/10 04:31:30;;;;;;;6.57;4.43;;;-1.80;99.90;;;;;;5000248;28;20074;-61
2021/03/10 04:33:56;;;;;;;8.05;4.93;;;-1.70;99.90;;;;;;4998525;28;20235;-62
2021/03/10 04:36:23;;;;;;;5.82;4.35;;;-1.80;99.90;;;;;;4999685;28;20057;-62
2021/03/10 04:38:49;;;;;;;9.32;4.95;;;-1.70;99.90;;;;;;5002123;28;20738;-61
2021/03/10 04:41:15;;;;;;;10.00;5.30;;;-1.70;99.90;;;;;;4996095;28;20123;-63
2021/03/10 04:43:42;;;;;;;6.70;4.82;;;-1.70;99.90;;;;;;4997755;28;20054;-63
2021/03/10 04:46:08;;;;;;;7.57;5.28;;;-1.70;99.90;;;;;;5001171;28;20049;-62
2021/03/10 04:48:35;;;;;;;8.77;4.68;;;-1.70;99.90;;;;;;5001069;28;20454;-63
2021/03/10 04:51:01;;;;;;;8.50;4.75;;;-1.70;99.90;;;;;;5000400;28;20191;-61
2021/03/10 04:53:28;;;;;;;17.40;7.63;;;-1.70;99.90;;;;;;4999047;28;20469;-63
2021/03/10 04:55:54;;;;;;;7.10;4.32;;;-1.70;99.90;;;;;;4999521;28;20053;-62
2021/03/10 04:58:21;;;;;;;7.38;5.47;;;-1.70;99.90;;;;;;4999366;28;20061;-62
2021/03/10 05:00:47;;;;;;;8.75;4.90;;;-1.70;99.90;;;;;;4998422;28;20097;-62
2021/03/10 05:03:14;;;;;;;10.07;4.50;;;-1.70;99.90;;;;;;4998067;28;20055;-63
2021/03/10 05:05:40;;;;;;;9.00;4.40;;;-1.70;99.90;;;;;;4996115;28;20771;-62
2021/03/10 05:08:06;;;;;;;9.65;4.93;;;-1.70;99.90;;;;;;4998057;28;20145;-63
2021/03/10 05:10:33;;;;;;;12.23;6.93;;;-1.70;99.90;;;;;;4999142;28;20149;-63
2021/03/10 05:12:59;;;;;;;8.45;5.68;;;-1.70;99.90;;;;;;4999767;28;20065;-62
2021/03/10 05:15:26;;;;;;;8.55;5.15;;;-1.70;99.90;;;;;;5000890;28;20042;-63
2021/03/10 05:17:52;;;;;;;9.90;5.10;;;-1.70;99.90;;;;;;4997786;28;20054;-63
2021/03/10 05:20:19;;;;;;;9.30;4.55;;;-1.70;99.90;;;;;;4997445;28;20108;-63
2021/03/10 05:22:45;;;;;;;9.15;5.95;;;-1.80;99.90;;;;;;4998767;28;20064;-62
2021/03/10 05:25:12;;;;;;;6.22;5.03;;;-1.80;99.90;;;;;;4999007;28;20148;-63
2021/03/10 05:27:39;;;;;;;9.40;5.40;;;-1.80;99.90;;;;;;5000303;28;20042;-61
2021/03/10 05:30:08;;;;;;;7.70;5.13;;;-1.80;99.90;;;;;;4999009;28;20050;-61
2021/03/10 05:32:36;;;;;;;7.10;4.32;;;-1.80;99.90;;;;;;5001254;28;20052;-62
2021/03/10 05:35:04;;;;;;;7.07;4.13;;;-1.70;99.90;;;;;;4999020;28;20474;-64
2021/03/10 05:37:30;;;;;;;9.07;7.30;;;-1.80;99.90;;;;;;5000018;28;20042;-65
2021/03/10 05:39:56;;;;;;;11.35;5.78;;;-1.70;99.90;;;;;;4995025;28;21574;-65
2021/03/10 05:42:23;;;;;;;7.40;5.05;;;-1.80;99.90;;;;;;4993523;28;20045;-65
2021/03/10 05:44:52;;;;;;;7.65;5.43;;;-1.70;99.90;;;;;;5000842;28;20128;-64
2021/03/10 05:47:20;;;;;;;8.43;5.83;;;-1.70;99.90;;;;;;4999070;28;20135;-65
2021/03/10 05:49:47;;;;;;;8.10;5.10;;;-1.70;99.90;;;;;;4998781;28;20119;-65
2021/03/10 05:52:16;;;;;;;7.75;6.15;;;-1.70;99.90;;;;;;4998839;28;20046;-64
2021/03/10 05:54:44;;;;;;;6.43;4.90;;;-1.70;99.90;;;;;;4997793;28;20053;-65
2021/03/10 05:57:11;;;;;;;8.60;5.93;;;-1.70;99.90;;;;;;4999485;28;20049;-65
2021/03/10 05:59:37;;;;;;;8.93;5.38;;;-1.70;99.90;;;;;;4998449;28;20042;-65
2021/03/10 06:02:05;;;;;;;10.25;7.20;;;-1.60;99.90;;;;;;4997314;28;20132;-65
2021/03/10 06:04:41;;;;;;;11.85;6.05;;;-1.60;99.90;;;;;;4998282;28;20145;-66
2021/03/10 06:07:24;;;;;;;7.07;5.40;;;-1.60;99.90;;;;;;4999483;28;20313;-65
2021/03/10 06:09:55;;;;;;;9.77;5.72;;;-1.60;99.90;;;;;;4996272;28;20049;-67
2021/03/10 06:12:22;;;;;;;9.38;6.25;;;-1.60;99.90;;;;;;5000374;28;20049;-65
2021/03/10 06:14:59;;;;;;;10.57;5.93;;;-1.50;99.90;;;;;;4998644;28;20510;-65
2021/03/10 06:17:25;;;;;;;8.57;6.85;;;-1.50;99.90;;;;;;4997405;28;20104;-65
2021/03/10 06:19:52;;;;;;;11.10;5.57;;;-1.50;99.90;;;;;;4996909;28;20080;-65
2021/03/10 06:22:19;;;;;;;6.82;5.22;;;-1.40;99.90;;;;;;4997621;28;20100;-65
2021/03/10 06:24:50;;;;;;;13.00;5.95;;;-1.40;99.90;;;;;;4997122;28;20501;-66
2021/03/10 06:27:22;;;;;;;6.82;5.68;;;-1.30;99.90;;;;;;4998683;28;20058;-65
2021/03/10 06:29:59;;;;;;;10.88;5.25;;;-1.30;99.90;;;;;;4996230;28;20050;-66
2021/03/10 06:32:26;;;;;;;10.90;6.07;;;-1.30;99.90;;;;;;4997702;28;20802;-65
2021/03/10 06:34:53;;;;;;;9.02;4.85;;;-1.30;99.90;;;;;;5002427;28;20045;-65
2021/03/10 06:37:28;;;;;;;8.98;5.13;;;-1.30;99.90;;;;;;4998724;28;20049;-65
2021/03/10 06:40:10;;;;;;;7.03;3.60;;;-1.20;99.90;;;;;;4997152;28;20079;-66
2021/03/10 06:42:37;;;;;;;8.80;5.22;;;-1.20;99.90;;;;;;4994753;28;20046;-66
2021/03/10 06:45:05;;;;;;;8.15;5.15;;;-1.20;99.90;;;;;;4997467;28;20123;-65
2021/03/10 06:47:41;;;;;;;12.45;5.32;;;-1.10;99.90;;;;;;4998379;28;20156;-66
2021/03/10 06:50:10;;;;;;;7.25;4.65;;;-1.10;99.90;;;;;;4995006;28;20061;-65
2021/03/10 06:52:41;;;;;;;5.72;3.60;;;-1.10;99.90;;;;;;4998795;28;20137;-67
2021/03/10 06:55:08;;;;;;;9.70;4.90;;;-1.00;99.90;;;;;;4996179;28;20764;-65
2021/03/10 06:57:44;;;;;;;10.10;5.05;;;-1.00;99.90;;;;;;4998699;28;20042;-65
2021/03/10 07:00:22;;;;;;;7.50;5.13;;;-0.90;99.90;;;;;;4996008;28;20088;-65
2021/03/10 07:02:49;;;;;;;9.68;5.63;;;-0.90;99.90;;;;;;4997567;28;20108;-64
2021/03/10 07:05:17;;;;;;;6.18;4.97;;;-0.80;99.90;;;;;;4998843;28;20741;-66
2021/03/10 07:07:46;;;;;;;5.90;4.45;;;-0.80;99.90;;;;;;4991827;28;20128;-66
2021/03/10 07:10:19;;;;;;;10.57;5.03;;;-0.80;99.90;;;;;;4997882;28;20136;-65
2021/03/10 07:12:47;;;;;;;7.30;4.63;;;-0.80;99.90;;;;;;4998084;28;20439;-66
2021/03/10 07:15:15;;;;;;;6.45;4.65;;;-0.60;99.90;;;;;;4998493;28;20133;-66
2021/03/10 07:17:45;;;;;;;6.60;4.28;;;-0.50;99.90;;;;;;4998747;28;20054;-65
2021/03/10 07:20:13;;;;;;;6.63;4.25;;;-0.50;99.90;;;;;;5002976;28;20560;-65
2021/03/10 07:22:46;;;;;;;5.95;4.38;;;-0.30;99.90;;;;;;4999194;28;20061;-64
2021/03/10 07:25:25;;;;;;;5.45;4.35;;;-0.20;99.90;;;;;;5001704;28;20062;-66
2021/03/10 07:28:02;;;;;;;8.50;4.10;;;-0.20;99.90;;;;;;5000256;28;20041;-65
2021/03/10 07:30:39;;;;;;;3.88;2.80;;;-0.20;99.90;;;;;;4998782;28;20244;-65
2021/03/10 07:33:14;;;;;;;3.83;2.78;;;-0.10;99.90;;;;;;5003122;28;20046;-66
2021/03/10 07:35:56;;;;;;;4.65;2.80;;;0.00;99.90;;;;;;5000815;28;20078;-66
2021/03/10 07:38:25;;;;;;;4.53;3.00;;;0.00;99.90;;;;;;5001520;28;20667;-65
2021/03/10 07:40:59;;;;;;;3.60;3.15;;;0.00;99.90;;;;;;5001163;28;20591;-66
2021/03/10 07:43:44;;;;;;;8.65;4.43;;;0.00;99.90;;;;;;4999138;28;20046;-66
2021/03/10 07:46:26;;;;;;;4.97;2.88;;;0.00;99.90;;;;;;5001146;28;20592;-66
2021/03/10 07:48:54;;;;;;;4.68;3.13;;;0.00;99.90;;;;;;4999070;28;20052;-65
2021/03/10 07:51:36;;;;;;;6.05;2.92;;;0.10;99.90;;;;;;5001198;28;20402;-65
2021/03/10 07:54:27;;;;;;;5.22;2.78;;;0.30;99.90;;;;;;4998290;28;20050;-66
2021/03/10 07:57:08;;;;;;;4.00;2.60;;;0.40;99.90;;;;;;5000641;28;20496;-65
2021/03/10 07:59:36;;;;;;;6.15;3.10;;;0.60;99.90;;;;;;5002238;28;20045;-65
2021/03/10 08:02:08;;;;;;;6.30;3.08;;;0.60;99.90;;;;;;5000331;28;20099;-66
2021/03/10 08:04:37;;;;;;;5.47;3.33;;;0.70;99.90;;;;;;5001451;28;21367;-66
2021/03/10 08:07:04;;;;;;;6.88;3.28;;;0.80;99.90;;;;;;5003258;28;20108;-65
2021/03/10 08:09:31;;;;;;;4.93;2.88;;;0.80;99.90;;;;;;4999883;28;20052;-66
2021/03/10 08:12:05;;;;;;;3.65;2.63;;;0.70;99.90;;;;;;4999661;28;20112;-67
2021/03/10 08:14:43;;;;;;;3.97;2.67;;;0.60;99.90;;;;;;5002752;28;20077;-66
2021/03/10 08:17:22;;;;;;;4.00;2.47;;;0.50;99.90;;;;;;5000854;28;20056;-66
2021/03/10 08:19:53;;;;;;;4.30;3.15;;;0.50;99.90;;;;;;5001019;28;20068;-66
2021/03/10 08:22:23;;;;;;;4.03;2.88;;;0.50;99.90;;;;;;4999180;28;20466;-65
2021/03/10 08:24:54;;;;;;;5.72;2.90;;;0.50;99.90;;;;;;5000516;28;20509;-66
2021/03/10 08:27:33;;;;;;;3.42;2.83;;;0.40;99.90;;;;;;5002054;28;20608;-65
2021/03/10 08:30:01;;;;;;;7.90;2.92;;;0.30;99.90;;;;;;4998163;28;20069;-66
2021/03/10 08:32:30;;;;;;;7.43;2.78;;;0.30;99.90;;;;;;4998081;28;20124;-66
2021/03/10 08:35:14;;;;;;;5.40;3.10;;;0.30;99.90;;;;;;5001391;28;20129;-65
2021/03/10 08:37:42;;;;;;;3.58;2.83;;;0.40;99.90;;;;;;5011584;28;20386;-67
2021/03/10 08:40:11;;;;;;;6.15;2.97;;;0.50;99.90;;;;;;4998354;28;20060;-66
2021/03/10 08:42:43;;;;;;;4.40;3.42;;;0.50;99.90;;;;;;4998971;28;20046;-66
2021/03/10 08:45:23;;;;;;;5.50;2.70;;;0.60;99.90;;;;;;5002048;28;20057;-66
2021/03/10 08:48:04;;;;;;;3.17;2.55;;;0.50;99.90;;;;;;4995304;28;20053;-65
2021/03/10 08:50:35;;;;;;;3.97;3.45;;;0.40;99.90;;;;;;4992293;28;20185;-65
2021/03/10 08:53:04;;;;;;;4.20;2.70;;;0.50;99.90;;;;;;4978704;28;20450;-67
2021/03/10 08:55:32;;;;;;;4.03;2.80;;;0.50;99.90;;;;;;4979442;28;20096;-65
2021/03/10 08:58:06;;;;;;;7.55;2.88;;;0.40;99.90;;;;;;4994063;28;20140;-66
2021/03/10 09:00:33;;;;;;;5.60;3.20;;;0.40;99.90;;;;;;5013790;28;20136;-66
2021/03/10 09:03:11;;;;;;;3.58;2.78;;;0.40;99.90;;;;;;4998041;28;20049;-65
2021/03/10 09:05:41;;;;;;;6.43;3.08;;;0.40;99.90;;;;;;4996414;28;20053;-65
2021/03/10 09:08:13;;;;;;;3.13;2.15;;;0.40;99.90;;;;;;4995207;28;20413;-66
2021/03/10 09:10:49;;;;;;;4.30;2.88;;;0.50;99.90;;;;;;4997472;28;21323;-65
2021/03/10 09:13:34;;;;;;;3.25;2.65;;;0.50;99.90;;;;;;5001200;28;20048;-65
2021/03/10 09:16:10;;;;;;;3.58;2.75;;;0.50;99.90;;;;;;4992618;28;20058;-65
2021/03/10 09:18:58;;;;;;;9.18;3.08;;;0.50;99.90;;;;;;4998211;28;20046;-65
2021/03/10 09:21:43;;;;;;;4.30;3.00;;;0.60;99.90;;;;;;4995815;28;20101;-66
2021/03/10 09:24:19;;;;;;;5.15;3.40;;;0.60;99.90;;;;;;4996777;28;20077;-66
2021/03/10 09:26:49;;;;;;;6.00;3.28;;;0.70;99.90;;;;;;5001824;28;20606;-67
2021/03/10 09:29:18;;;;;;;5.20;3.30;;;0.80;99.90;;;;;;4995178;28;20049;-66
2021/03/10 09:31:55;;;;;;;5.20;2.80;;;0.80;99.90;;;;;;4997949;28;20053;-66
2021/03/10 09:34:25;;;;;;;4.35;3.80;;;0.90;99.90;;;;;;4997648;28;20042;-65
2021/03/10 09:36:56;;;;;;;4.75;3.65;;;0.90;99.90;;;;;;4995885;28;20127;-66
2021/03/10 09:39:38;;;;;;;7.35;3.40;;;0.80;99.90;;;;;;4997294;28;20053;-65
2021/03/10 09:42:14;;;;;;;3.13;2.63;;;0.90;99.90;;;;;;4995682;28;20082;-65
2021/03/10 09:44:52;;;;;;;5.25;2.75;;;0.80;99.90;;;;;;4998523;28;20073;-66
2021/03/10 09:47:27;;;;;;;5.00;3.10;;;0.80;99.90;;;;;;4997790;28;20195;-66
2021/03/10 09:50:00;;;;;;;3.92;2.88;;;0.80;99.90;;;;;;4996847;28;20727;-65
2021/03/10 09:52:37;;;;;;;3.70;2.92;;;0.90;99.90;;;;;;4999458;28;20427;-65
2021/03/10 09:55:17;;;;;;;4.43;3.55;;;1.00;99.90;;;;;;4998367;28;20098;-65
2021/03/10 09:57:44;;;;;;;4.50;2.40;;;1.00;99.90;;;;;;4990917;28;20635;-65
2021/03/10 10:00:20;;;;;;;4.47;3.00;;;1.00;99.90;;;;;;4996574;28;20093;-66
2021/03/10 10:02:51;;;;;;;6.13;3.60;;;1.00;99.90;;;;;;4997137;28;20077;-66
2021/03/10 10:05:34;;;;;;;6.80;3.67;;;0.90;99.90;;;;;;4996331;28;20419;-65
2021/03/10 10:08:03;;;;;;;6.60;2.75;;;0.80;99.90;;;;;;4996786;28;20050;-66
2021/03/10 10:10:34;;;;;;;6.43;3.03;;;0.90;99.90;;;;;;4995715;28;20046;-66
2021/03/10 10:13:03;;;;;;;5.00;4.07;;;0.90;99.90;;;;;;5001162;28;20057;-66
2021/03/10 10:15:36;;;;;;;4.20;2.95;;;0.90;99.90;;;;;;4998705;28;20099;-66
2021/03/10 10:18:06;;;;;;;6.43;2.85;;;0.80;99.90;;;;;;4997069;28;20060;-65
2021/03/10 10:20:38;;;;;;;2.25;1.90;;;0.90;99.90;;;;;;4999897;28;20058;-66
2021/03/10 10:23:09;;;;;;;2.47;1.73;;;1.00;99.90;;;;;;4999219;28;20116;-65
2021/03/10 10:25:46;;;;;;;2.13;1.73;;;1.00;99.90;;;;;;4996115;28;20446;-66
2021/03/10 10:28:13;;;;;;;8.68;2.10;;;1.00;99.90;;;;;;4998388;28;20057;-65
2021/03/10 10:30:39;;;;;;;5.68;2.83;;;1.10;99.90;;;;;;4997752;28;20049;-66
2021/03/10 10:33:08;;;;;;;3.25;2.40;;;1.10;99.90;;;;;;4998052;28;20077;-66
2021/03/10 10:35:42;;;;;;;3.33;2.30;;;1.20;99.90;;;;;;4999875;28;20096;-66
2021/03/10 10:38:09;;;;;;;4.28;2.25;;;1.10;99.90;;;;;;4998226;28;20201;-66
2021/03/10 10:40:37;;;;;;;2.72;2.20;;;1.20;99.90;;;;;;4996589;28;20061;-66
2021/03/10 10:43:08;;;;;;;2.00;1.77;;;1.20;99.90;;;;;;4996709;28;20535;-65
2021/03/10 10:45:36;;;;;;;2.15;1.90;;;1.20;99.90;;;;;;4996199;28;20641;-67
2021/03/10 10:48:04;;;;;;;5.38;2.67;;;1.20;99.90;;;;;;4976887;28;20074;-66
2021/03/10 10:50:47;;;;;;;2.45;2.05;;;1.10;99.90;;;;;;4988110;28;20061;-66
2021/03/10 10:53:15;;;;;;;2.38;2.08;;;1.10;99.90;;;;;;5014894;28;20115;-65
2021/03/10 10:55:42;;;;;;;4.22;1.95;;;1.10;99.90;;;;;;5000842;28;20414;-67
2021/03/10 10:58:09;;;;;;;2.00;1.80;;;1.10;99.90;;;;;;5002976;28;20058;-66
2021/03/10 11:00:38;;;;;;;3.28;2.72;;;1.10;99.90;;;;;;5001349;28;20053;-66
2021/03/10 11:03:10;;;;;;;2.75;1.77;;;1.00;99.90;;;;;;5000055;28;20412;-65
2021/03/10 11:05:44;;;;;;;4.28;1.52;;;1.00;99.90;;;;;;4996503;28;20150;-64
2021/03/10 11:08:13;;;;;;;5.00;2.30;;;0.90;99.90;;;;;;5003526;28;20049;-65
2021/03/10 11:10:40;;;;;;;4.18;1.75;;;0.90;99.90;;;;;;4999203;28;20054;-66
2021/03/10 11:13:11;;;;;;;2.75;1.15;;;0.90;99.90;;;;;;4999030;28;20091;-65
2021/03/10 11:15:47;;;;;;;3.05;1.55;;;0.90;99.90;;;;;;5000494;28;20089;-64
2021/03/10 11:18:32;;;;;;;2.90;1.42;;;0.90;99.90;;;;;;5000743;28;20050;-65
2021/03/10 11:20:58;;;;;;;3.15;1.67;;;0.80;99.90;;;;;;5002904;28;20069;-64
2021/03/10 11:23:26;;;;;;;4.65;2.17;;;0.70;99.90;;;;;;4999613;28;20054;-65
2021/03/10 11:25:53;;;;;;;3.70;1.50;;;0.70;99.90;;;;;;4997536;28;20046;-66
2021/03/10 11:28:20;;;;;;;4.88;1.50;;;0.70;99.90;;;;;;5002551;28;20042;-65
2021/03/10 11:30:48;;;;;;;2.22;1.80;;;0.70;99.90;;;;;;4999667;28;20058;-65
2021/03/10 11:33:18;;;;;;;1.63;1.20;;;0.70;99.90;;;;;;5001941;28;20069;-67
2021/03/10 11:35:46;;;;;;;3.10;1.75;;;0.70;99.90;;;;;;4998618;28;20057;-66
2021/03/10 11:38:13;;;;;;;4.28;1.60;;;0.70;99.90;;;;;;5001523;28;20064;-66
2021/03/10 11:40:45;;;;;;;3.47;1.55;;;0.70;99.90;;;;;;5015144;28;20046;-65
2021/03/10 11:43:13;;;;;;;3.15;2.35;;;0.70;99.90;;;;;;5001250;28;20461;-65
2021/03/10 11:45:40;;;;;;;1.35;1.20;;;0.60;99.90;;;;;;5000605;28;20052;-65
2021/03/10 11:48:06;;;;;;;2.03;1.50;;;0.70;99.90;;;;;;5003703;28;20054;-66
2021/03/10 11:50:36;;;;;;;2.65;1.70;;;0.70;99.90;;;;;;5001001;28;20214;-67
2021/03/10 11:53:04;;;;;;;1.63;1.40;;;0.60;99.90;;;;;;5000664;28;20125;-67
2021/03/10 11:55:31;;;;;;;1.80;1.13;;;0.50;99.90;;;;;;4998011;28;20046;-66
2021/03/10 11:57:58;;;;;;;4.15;1.65;;;0.60;99.90;;;;;;4999962;28;20098;-65
2021/03/10 12:00:26;;;;;;;3.97;1.80;;;0.60;99.90;;;;;;5013163;28;20049;-67
2021/03/10 12:02:57;;;;;;;4.85;2.20;;;0.60;99.90;;;;;;4997693;28;20060;-65
2021/03/10 12:05:44;;;;;;;3.97;1.90;;;0.50;99.90;;;;;;4995495;28;20375;-65
2021/03/10 12:08:10;;;;;;;3.20;2.22;;;0.50;99.90;;;;;;5002879;28;20061;-68
2021/03/10 12:10:40;;;;;;;3.03;1.95;;;0.40;99.90;;;;;;4999029;28;20093;-66
2021/03/10 12:13:10;;;;;;;2.47;1.60;;;0.40;99.90;;;;;;5001740;28;20347;-66
2021/03/10 12:15:40;;;;;;;2.67;2.10;;;0.40;99.90;;;;;;5004931;28;20050;-67
2021/03/10 12:18:07;;;;;;;;;;;0.40;99.90;;;;;;5003615;28;20140;-66
2021/03/10 12:20:34;;;;;;;3.33;1.95;;;0.40;99.90;;;;;;5002367;28;20402;-66
2021/03/10 12:23:01;;;;;;;2.42;1.70;;;0.30;99.90;;;;;;5007203;28;20045;-65
2021/03/10 12:25:27;;;;;;;4.22;2.20;;;0.20;99.90;;;;;;5001548;28;20620;-65
2021/03/10 12:27:57;;;;;;;2.60;1.98;;;0.30;99.90;;;;;;4998677;28;20049;-65
2021/03/10 12:30:24;;;;;;;2.72;1.90;;;0.30;99.90;;;;;;5000878;28;20057;-66
2021/03/10 12:32:50;;;;;;;4.38;2.55;;;0.30;99.90;;;;;;5000732;28;20046;-63
2021/03/10 12:35:18;;;;;;;3.50;2.30;;;0.40;99.90;;;;;;5002045;28;20450;-64
2021/03/10 12:37:44;;;;;;;6.68;2.72;;;0.40;99.90;;;;;;4998633;28;20052;-64
2021/03/10 12:40:12;;;;;;;3.17;2.00;;;0.30;99.90;;;;;;5002675;28;20148;-66
2021/03/10 12:42:40;;;;;;;4.43;2.38;;;0.30;99.90;;;;;;4999249;28;20042;-64
2021/03/10 12:45:07;;;;;;;4.50;2.58;;;0.30;99.90;;;;;;5002102;28;20140;-68
2021/03/10 12:47:34;;;;;;;4.90;2.80;;;0.40;99.90;;;;;;5000713;28;20048;-64
2021/03/10 12:50:01;;;;;;;3.35;2.95;;;0.50;99.90;;;;;;4979359;28;20050;-67
2021/03/10 12:52:28;;;;;;;6.93;2.95;;;0.60;99.90;;;;;;4998166;28;20069;-66
2021/03/10 12:54:55;;;;;;;4.53;2.40;;;0.60;99.90;;;;;;5001345;28;20072;-65
2021/03/10 12:57:22;;;;;;;4.45;1.85;;;0.60;99.90;;;;;;5001618;28;20058;-64
2021/03/10 12:59:48;;;;;;;2.50;2.03;;;0.60;99.90;;;;;;4999805;28;20481;-65
2021/03/10 13:02:15;;;;;;;2.60;1.60;;;0.90;99.90;;;;;;5002214;28;20038;-68
2021/03/10 13:04:42;;;;;;;2.35;1.90;;;1.10;99.90;;;;;;4994754;28;20037;-64
2021/03/10 13:07:08;;;;;;;3.88;2.03;;;1.00;99.90;;;;;;5000803;28;20045;-63